Frontier, WY (83121)

3:28 AM MDT on August 31, 2014 (GMT -0600)
Kemmerer | Change Station
CLOSE
Current Station
Personal Weather Station
Location: Kemmerer, WY
Elevation: 6985 ft
Nearby Weather Stations

Elev 6985 ft 41.80 °N, 110.54 °W | Updated 13 seconds ago

Overcast
Overcast
49.3 °F
Feels Like 49 °F
N
2.0
Wind Variable Wind from NNW
Gusts 11.0 mph

Today
High -- | Low -- °F
--% Chance of Precip.
Yesterday
High -- | Low -- °F
Precip. -- in
6:46 AM 7:57 PM
Waxing Crescent, 29% visible
Pressure 30.07 in
Visibility 10.0 miles
Clouds Scattered Clouds 4700 ft
Scattered Clouds 6000 ft
Overcast 7500 ft
Windchill 49 °F
Dew Point 41 °F
Humidity 72%
Rainfall 0.00 in
Snow Depth Not available.
UV 0 out of 12
Pollen 8.60 out of 12
Air Quality Not available.
Flu Activity Not available.
METAR KEMM 310915Z AUTO 30008G11KT 10SM RA SCT047 SCT060 OVC075 08/06 A3007 RMK AO2

More Conditions Fewer Conditions

Pressure 30.07 in
Visibility 10.0 miles
Clouds Scattered Clouds 4700 ft
Scattered Clouds 6000 ft
Overcast 7500 ft
Windchill 49 °F
Dew Point 41 °F
Humidity 72%
Rainfall 0.00 in
Snow Depth Not available.
UV 0 out of 12
Pollen 8.60 out of 12
Air Quality Not available.
Flu Activity Not available.
METAR KEMM 310915Z AUTO 30008G11KT 10SM RA SCT047 SCT060 OVC075 08/06 A3007 RMK AO2

More Conditions Fewer Conditions

10-Day Weather Forecast

Almanac

Astronomy

Aug. 31, 2014 Rise Set
Actual Time 6:46 AM MDT 7:57 PM MDT
Civil Twilight 6:18 AM MDT 8:25 PM MDT
Nautical Twilight 5:43 AM MDT 8:59 PM MDT
Astronomical Twilight 5:07 AM MDT 9:35 PM MDT
Moon 12:42 PM MDT 11:08 PM MDT
Length of Visible Light 14h 07m
Length of Day
13h 10m
Tomorrow will be 2m 41s shorter.
Waxing Crescent, 29% of the Moon is Illuminated
Today
Waxing Crescent
Sep 2
First Quarter
Sep 8
Full
Sep 15
Last Quarter
Sep 24
New

Today's Extremes

State Highs State Lows

Community

WunderPhotos

Upload Photos

1,748,834 photos uploaded!

Nearby

Snow Depth

Station Depth Elevation
Spring Creek Divide 0 in 9000 ft
Salt River Summit 0 in 7600 ft
Blind Bull Summit 2 in 8900 ft
Big Sandy Opening 0 in 9080 ft
East Rim Divide 0 in 7930 ft

Earthquake Activity

City Distance Mag. Time & Date
Driggs, Idaho 135 miles 3.8 2:09 PM MDT
2014-08-30
Minimum magnitude displayed is 2.5.

Coastal Water Temperatures

Place Temperature
No Stations Reporting

Nearby Weather Stations